sensor_id;sensor_type;location;lat;lon;timestamp;temperature;humidity
69206;SHT30;56319;48.920;2.332;2023-03-25T00:00:08;21.30;38.67
69206;SHT30;56319;48.920;2.332;2023-03-25T00:02:39;21.32;38.61
69206;SHT30;56319;48.920;2.332;2023-03-25T00:05:05;21.30;38.73
69206;SHT30;56319;48.920;2.332;2023-03-25T00:07:31;21.31;38.60
69206;SHT30;56319;48.920;2.332;2023-03-25T00:09:56;21.31;38.61
69206;SHT30;56319;48.920;2.332;2023-03-25T00:12:22;21.31;38.60
69206;SHT30;56319;48.920;2.332;2023-03-25T00:14:48;21.30;38.68
69206;SHT30;56319;48.920;2.332;2023-03-25T00:17:20;21.28;38.64
69206;SHT30;56319;48.920;2.332;2023-03-25T00:19:46;21.27;38.62
69206;SHT30;56319;48.920;2.332;2023-03-25T00:22:16;21.27;38.63
69206;SHT30;56319;48.920;2.332;2023-03-25T00:24:41;21.28;38.66
69206;SHT30;56319;48.920;2.332;2023-03-25T00:27:07;21.27;38.65
69206;SHT30;56319;48.920;2.332;2023-03-25T00:29:32;21.26;38.69
69206;SHT30;56319;48.920;2.332;2023-03-25T00:31:58;21.27;38.65
69206;SHT30;56319;48.920;2.332;2023-03-25T00:34:23;21.27;38.66
69206;SHT30;56319;48.920;2.332;2023-03-25T00:36:49;21.27;38.67
69206;SHT30;56319;48.920;2.332;2023-03-25T00:39:14;21.26;38.70
69206;SHT30;56319;48.920;2.332;2023-03-25T00:41:40;21.26;38.71
69206;SHT30;56319;48.920;2.332;2023-03-25T00:44:10;21.23;38.65
69206;SHT30;56319;48.920;2.332;2023-03-25T00:46:36;21.24;38.69
69206;SHT30;56319;48.920;2.332;2023-03-25T00:49:02;21.26;38.74
69206;SHT30;56319;48.920;2.332;2023-03-25T00:51:28;21.24;38.71
69206;SHT30;56319;48.920;2.332;2023-03-25T00:53:56;21.23;38.65
69206;SHT30;56319;48.920;2.332;2023-03-25T00:56:25;21.24;38.73
69206;SHT30;56319;48.920;2.332;2023-03-25T00:58:51;21.24;38.74
69206;SHT30;56319;48.920;2.332;2023-03-25T01:01:19;21.20;38.73
69206;SHT30;56319;48.920;2.332;2023-03-25T01:03:48;21.20;38.75
69206;SHT30;56319;48.920;2.332;2023-03-25T01:06:23;21.26;38.81
69206;SHT30;56319;48.920;2.332;2023-03-25T01:08:51;21.20;38.78
69206;SHT30;56319;48.920;2.332;2023-03-25T01:11:20;21.23;38.76
69206;SHT30;56319;48.920;2.332;2023-03-25T01:13:46;21.20;38.78
69206;SHT30;56319;48.920;2.332;2023-03-25T01:16:12;21.17;38.83
69206;SHT30;56319;48.920;2.332;2023-03-25T01:18:38;21.19;38.79
69206;SHT30;56319;48.920;2.332;2023-03-25T01:21:04;21.19;38.82
69206;SHT30;56319;48.920;2.332;2023-03-25T01:23:31;21.21;38.86
69206;SHT30;56319;48.920;2.332;2023-03-25T01:25:56;21.21;38.84
69206;SHT30;56319;48.920;2.332;2023-03-25T01:28:22;21.20;38.85
69206;SHT30;56319;48.920;2.332;2023-03-25T01:30:47;21.19;38.88
69206;SHT30;56319;48.920;2.332;2023-03-25T01:33:13;21.21;38.84
69206;SHT30;56319;48.920;2.332;2023-03-25T01:35:38;21.15;38.87
69206;SHT30;56319;48.920;2.332;2023-03-25T01:38:04;21.14;38.88
69206;SHT30;56319;48.920;2.332;2023-03-25T01:40:29;21.15;38.93
69206;SHT30;56319;48.920;2.332;2023-03-25T01:42:55;21.13;38.94
69206;SHT30;56319;48.920;2.332;2023-03-25T01:45:25;21.14;38.98
69206;SHT30;56319;48.920;2.332;2023-03-25T01:47:58;21.14;38.98
69206;SHT30;56319;48.920;2.332;2023-03-25T01:50:27;21.13;38.94
69206;SHT30;56319;48.920;2.332;2023-03-25T01:52:55;21.14;38.96
69206;SHT30;56319;48.920;2.332;2023-03-25T01:55:21;21.13;38.98
69206;SHT30;56319;48.920;2.332;2023-03-25T01:57:49;21.13;38.97
69206;SHT30;56319;48.920;2.332;2023-03-25T02:00:19;21.11;39.03
69206;SHT30;56319;48.920;2.332;2023-03-25T02:02:45;21.11;39.01
69206;SHT30;56319;48.920;2.332;2023-03-25T02:05:20;21.10;39.02
69206;SHT30;56319;48.920;2.332;2023-03-25T02:07:49;21.10;39.01
69206;SHT30;56319;48.920;2.332;2023-03-25T02:10:18;21.08;39.02
69206;SHT30;56319;48.920;2.332;2023-03-25T02:12:44;21.10;39.08
69206;SHT30;56319;48.920;2.332;2023-03-25T02:15:13;21.11;39.05
69206;SHT30;56319;48.920;2.332;2023-03-25T02:18:00;21.13;39.11
69206;SHT30;56319;48.920;2.332;2023-03-25T02:33:03;21.08;39.19
69206;SHT30;56319;48.920;2.332;2023-03-25T02:35:59;21.07;39.22
69206;SHT30;56319;48.920;2.332;2023-03-25T02:38:35;21.06;39.25
69206;SHT30;56319;48.920;2.332;2023-03-25T02:44:00;21.06;39.25
69206;SHT30;56319;48.920;2.332;2023-03-25T02:46:28;21.07;39.26
69206;SHT30;56319;48.920;2.332;2023-03-25T02:49:01;21.04;39.26
69206;SHT30;56319;48.920;2.332;2023-03-25T02:51:31;21.06;39.31
69206;SHT30;56319;48.920;2.332;2023-03-25T02:54:03;21.04;39.29
69206;SHT30;56319;48.920;2.332;2023-03-25T02:56:30;21.06;39.31
69206;SHT30;56319;48.920;2.332;2023-03-25T02:58:58;21.06;39.32
69206;SHT30;56319;48.920;2.332;2023-03-25T03:01:25;21.04;39.34
69206;SHT30;56319;48.920;2.332;2023-03-25T03:03:53;21.02;39.35
69206;SHT30;56319;48.920;2.332;2023-03-25T03:06:20;21.03;39.37
69206;SHT30;56319;48.920;2.332;2023-03-25T03:09:11;21.03;39.41
69206;SHT30;56319;48.920;2.332;2023-03-25T03:11:55;21.04;39.39
69206;SHT30;56319;48.920;2.332;2023-03-25T03:17:39;21.00;39.46
69206;SHT30;56319;48.920;2.332;2023-03-25T03:20:33;20.99;39.44
69206;SHT30;56319;48.920;2.332;2023-03-25T03:23:14;20.99;39.43
69206;SHT30;56319;48.920;2.332;2023-03-25T03:25:50;21.02;39.48
69206;SHT30;56319;48.920;2.332;2023-03-25T03:28:42;21.00;39.48
69206;SHT30;56319;48.920;2.332;2023-03-25T03:31:16;20.99;39.52
69206;SHT30;56319;48.920;2.332;2023-03-25T03:33:51;20.97;39.52
69206;SHT30;56319;48.920;2.332;2023-03-25T03:36:21;20.99;39.49
69206;SHT30;56319;48.920;2.332;2023-03-25T03:38:54;20.97;39.56
69206;SHT30;56319;48.920;2.332;2023-03-25T03:41:25;20.94;39.54
69206;SHT30;56319;48.920;2.332;2023-03-25T03:44:13;20.97;39.57
69206;SHT30;56319;48.920;2.332;2023-03-25T03:46:47;20.94;39.56
69206;SHT30;56319;48.920;2.332;2023-03-25T03:49:17;20.96;39.54
69206;SHT30;56319;48.920;2.332;2023-03-25T03:51:49;20.99;39.56
69206;SHT30;56319;48.920;2.332;2023-03-25T03:54:21;20.94;39.60
69206;SHT30;56319;48.920;2.332;2023-03-25T03:56:54;20.93;39.60
69206;SHT30;56319;48.920;2.332;2023-03-25T04:02:23;20.97;39.61
69206;SHT30;56319;48.920;2.332;2023-03-25T04:04:52;20.90;39.63
69206;SHT30;56319;48.920;2.332;2023-03-25T04:07:24;20.92;39.61
69206;SHT30;56319;48.920;2.332;2023-03-25T04:09:59;20.92;39.64
69206;SHT30;56319;48.920;2.332;2023-03-25T04:12:32;20.94;39.62
69206;SHT30;56319;48.920;2.332;2023-03-25T04:15:00;20.92;39.62
69206;SHT30;56319;48.920;2.332;2023-03-25T04:17:27;20.90;39.57
69206;SHT30;56319;48.920;2.332;2023-03-25T04:19:55;20.89;39.64
69206;SHT30;56319;48.920;2.332;2023-03-25T04:22:21;20.92;39.68
69206;SHT30;56319;48.920;2.332;2023-03-25T04:24:47;20.89;39.62
69206;SHT30;56319;48.920;2.332;2023-03-25T04:27:17;20.86;39.68
69206;SHT30;56319;48.920;2.332;2023-03-25T04:29:43;20.89;39.64
69206;SHT30;56319;48.920;2.332;2023-03-25T04:32:10;20.86;39.67
69206;SHT30;56319;48.920;2.332;2023-03-25T04:34:37;20.85;39.62
69206;SHT30;56319;48.920;2.332;2023-03-25T04:37:03;20.87;39.67
69206;SHT30;56319;48.920;2.332;2023-03-25T04:39:29;20.87;39.60
69206;SHT30;56319;48.920;2.332;2023-03-25T04:41:57;20.87;39.64
69206;SHT30;56319;48.920;2.332;2023-03-25T04:44:28;20.86;39.65
69206;SHT30;56319;48.920;2.332;2023-03-25T04:46:58;20.85;39.63
69206;SHT30;56319;48.920;2.332;2023-03-25T04:49:24;20.85;39.68
69206;SHT30;56319;48.920;2.332;2023-03-25T04:51:52;20.85;39.63
69206;SHT30;56319;48.920;2.332;2023-03-25T04:54:19;20.85;39.65
69206;SHT30;56319;48.920;2.332;2023-03-25T04:56:46;20.85;39.63
69206;SHT30;56319;48.920;2.332;2023-03-25T04:59:14;20.82;39.68
69206;SHT30;56319;48.920;2.332;2023-03-25T05:01:40;20.83;39.64
69206;SHT30;56319;48.920;2.332;2023-03-25T05:04:08;20.85;39.63
69206;SHT30;56319;48.920;2.332;2023-03-25T05:06:39;20.80;39.62
69206;SHT30;56319;48.920;2.332;2023-03-25T05:09:08;20.80;39.67
69206;SHT30;56319;48.920;2.332;2023-03-25T05:11:35;20.80;39.65
69206;SHT30;56319;48.920;2.332;2023-03-25T05:14:04;20.79;39.63
69206;SHT30;56319;48.920;2.332;2023-03-25T05:16:31;20.80;39.62
69206;SHT30;56319;48.920;2.332;2023-03-25T05:18:56;20.79;39.68
69206;SHT30;56319;48.920;2.332;2023-03-25T05:21:22;20.77;39.62
69206;SHT30;56319;48.920;2.332;2023-03-25T05:23:47;20.77;39.61
69206;SHT30;56319;48.920;2.332;2023-03-25T05:26:13;20.77;39.59
69206;SHT30;56319;48.920;2.332;2023-03-25T05:28:39;20.79;39.59
69206;SHT30;56319;48.920;2.332;2023-03-25T05:31:06;20.75;39.60
69206;SHT30;56319;48.920;2.332;2023-03-25T05:33:34;20.76;39.63
69206;SHT30;56319;48.920;2.332;2023-03-25T05:36:03;20.77;39.58
69206;SHT30;56319;48.920;2.332;2023-03-25T05:38:28;20.76;39.54
69206;SHT30;56319;48.920;2.332;2023-03-25T05:40:54;20.73;39.54
69206;SHT30;56319;48.920;2.332;2023-03-25T05:43:20;20.77;39.50
69206;SHT30;56319;48.920;2.332;2023-03-25T05:45:47;20.73;39.50
69206;SHT30;56319;48.920;2.332;2023-03-25T05:48:14;20.72;39.48
69206;SHT30;56319;48.920;2.332;2023-03-25T05:50:39;20.73;39.51
69206;SHT30;56319;48.920;2.332;2023-03-25T05:53:11;20.72;39.52
69206;SHT30;56319;48.920;2.332;2023-03-25T05:55:37;20.73;39.52
69206;SHT30;56319;48.920;2.332;2023-03-25T05:58:03;20.73;39.51
69206;SHT30;56319;48.920;2.332;2023-03-25T06:00:29;20.71;39.52
69206;SHT30;56319;48.920;2.332;2023-03-25T06:02:55;20.73;39.52
69206;SHT30;56319;48.920;2.332;2023-03-25T06:05:23;20.73;39.49
69206;SHT30;56319;48.920;2.332;2023-03-25T06:07:50;20.72;39.51
69206;SHT30;56319;48.920;2.332;2023-03-25T06:10:20;20.73;39.48
69206;SHT30;56319;48.920;2.332;2023-03-25T06:12:47;20.72;39.46
69206;SHT30;56319;48.920;2.332;2023-03-25T06:15:15;20.72;39.44
69206;SHT30;56319;48.920;2.332;2023-03-25T06:17:42;20.69;39.49
69206;SHT30;56319;48.920;2.332;2023-03-25T06:20:12;20.71;39.45
69206;SHT30;56319;48.920;2.332;2023-03-25T06:22:44;20.69;39.43
69206;SHT30;56319;48.920;2.332;2023-03-25T06:25:13;20.71;39.45
69206;SHT30;56319;48.920;2.332;2023-03-25T06:27:42;20.71;39.46
69206;SHT30;56319;48.920;2.332;2023-03-25T06:30:10;20.69;39.46
69206;SHT30;56319;48.920;2.332;2023-03-25T06:32:37;20.71;39.48
69206;SHT30;56319;48.920;2.332;2023-03-25T06:35:05;20.69;39.49
69206;SHT30;56319;48.920;2.332;2023-03-25T06:37:32;20.68;39.46
69206;SHT30;56319;48.920;2.332;2023-03-25T06:39:58;20.68;39.45
69206;SHT30;56319;48.920;2.332;2023-03-25T06:42:25;20.69;39.45
69206;SHT30;56319;48.920;2.332;2023-03-25T06:44:51;20.68;39.43
69206;SHT30;56319;48.920;2.332;2023-03-25T06:47:17;20.68;39.45
69206;SHT30;56319;48.920;2.332;2023-03-25T06:49:42;20.69;39.45
69206;SHT30;56319;48.920;2.332;2023-03-25T06:52:08;20.68;39.43
69206;SHT30;56319;48.920;2.332;2023-03-25T06:54:34;20.69;39.48
69206;SHT30;56319;48.920;2.332;2023-03-25T06:56:59;20.68;39.48
69206;SHT30;56319;48.920;2.332;2023-03-25T06:59:25;20.69;39.45
69206;SHT30;56319;48.920;2.332;2023-03-25T07:01:50;20.68;39.49
69206;SHT30;56319;48.920;2.332;2023-03-25T07:04:16;20.69;39.46
69206;SHT30;56319;48.920;2.332;2023-03-25T07:06:41;20.66;39.45
69206;SHT30;56319;48.920;2.332;2023-03-25T07:09:07;20.69;39.45
69206;SHT30;56319;48.920;2.332;2023-03-25T07:11:33;20.66;39.43
69206;SHT30;56319;48.920;2.332;2023-03-25T07:13:59;20.69;39.47
69206;SHT30;56319;48.920;2.332;2023-03-25T07:16:25;20.68;39.52
69206;SHT30;56319;48.920;2.332;2023-03-25T07:18:51;20.66;39.47
69206;SHT30;56319;48.920;2.332;2023-03-25T07:21:18;20.65;39.52
69206;SHT30;56319;48.920;2.332;2023-03-25T07:23:43;20.65;39.46
69206;SHT30;56319;48.920;2.332;2023-03-25T07:26:09;20.66;39.46
69206;SHT30;56319;48.920;2.332;2023-03-25T07:28:35;20.68;39.43
69206;SHT30;56319;48.920;2.332;2023-03-25T07:31:07;20.66;39.43
69206;SHT30;56319;48.920;2.332;2023-03-25T07:33:33;20.66;39.47
69206;SHT30;56319;48.920;2.332;2023-03-25T07:35:58;20.66;39.45
69206;SHT30;56319;48.920;2.332;2023-03-25T07:38:24;20.68;39.46
69206;SHT30;56319;48.920;2.332;2023-03-25T07:40:49;20.64;39.41
69206;SHT30;56319;48.920;2.332;2023-03-25T07:43:15;20.65;39.47
69206;SHT30;56319;48.920;2.332;2023-03-25T07:45:40;20.66;39.47
69206;SHT30;56319;48.920;2.332;2023-03-25T07:48:06;20.65;39.39
69206;SHT30;56319;48.920;2.332;2023-03-25T07:50:38;20.65;39.42
69206;SHT30;56319;48.920;2.332;2023-03-25T07:53:03;20.65;39.39
69206;SHT30;56319;48.920;2.332;2023-03-25T07:55:29;20.66;39.39
69206;SHT30;56319;48.920;2.332;2023-03-25T07:57:54;20.65;39.38
69206;SHT30;56319;48.920;2.332;2023-03-25T08:00:20;20.66;39.39
69206;SHT30;56319;48.920;2.332;2023-03-25T08:02:46;20.66;39.36
69206;SHT30;56319;48.920;2.332;2023-03-25T08:05:12;20.66;39.36
69206;SHT30;56319;48.920;2.332;2023-03-25T08:07:47;20.66;39.37
69206;SHT30;56319;48.920;2.332;2023-03-25T08:10:13;20.66;39.34
69206;SHT30;56319;48.920;2.332;2023-03-25T08:12:40;20.69;39.35
69206;SHT30;56319;48.920;2.332;2023-03-25T08:15:07;20.69;39.35
69206;SHT30;56319;48.920;2.332;2023-03-25T08:17:32;20.66;39.30
69206;SHT30;56319;48.920;2.332;2023-03-25T08:19:58;20.68;39.30
69206;SHT30;56319;48.920;2.332;2023-03-25T08:22:25;20.68;39.21
69206;SHT30;56319;48.920;2.332;2023-03-25T08:24:52;20.68;39.20
69206;SHT30;56319;48.920;2.332;2023-03-25T08:27:18;20.68;39.20
69206;SHT30;56319;48.920;2.332;2023-03-25T08:29:44;20.69;39.20
69206;SHT30;56319;48.920;2.332;2023-03-25T08:32:11;20.69;39.17
69206;SHT30;56319;48.920;2.332;2023-03-25T08:34:37;20.68;39.18
69206;SHT30;56319;48.920;2.332;2023-03-25T08:37:05;20.69;39.11
69206;SHT30;56319;48.920;2.332;2023-03-25T08:39:32;20.68;39.17
69206;SHT30;56319;48.920;2.332;2023-03-25T08:42:05;20.69;39.10
69206;SHT30;56319;48.920;2.332;2023-03-25T08:44:30;20.65;39.08
69206;SHT30;56319;48.920;2.332;2023-03-25T08:46:56;20.66;39.05
69206;SHT30;56319;48.920;2.332;2023-03-25T08:49:21;20.66;39.07
69206;SHT30;56319;48.920;2.332;2023-03-25T08:51:47;20.68;39.10
69206;SHT30;56319;48.920;2.332;2023-03-25T08:54:13;20.69;39.03
69206;SHT30;56319;48.920;2.332;2023-03-25T08:56:38;20.68;39.05
69206;SHT30;56319;48.920;2.332;2023-03-25T08:59:04;20.68;39.03
69206;SHT30;56319;48.920;2.332;2023-03-25T09:01:29;20.68;39.03
69206;SHT30;56319;48.920;2.332;2023-03-25T09:03:55;20.66;38.98
69206;SHT30;56319;48.920;2.332;2023-03-25T09:06:22;20.69;38.96
69206;SHT30;56319;48.920;2.332;2023-03-25T09:08:47;20.71;38.96
69206;SHT30;56319;48.920;2.332;2023-03-25T09:11:13;20.71;38.91
69206;SHT30;56319;48.920;2.332;2023-03-25T09:13:40;20.72;38.90
69206;SHT30;56319;48.920;2.332;2023-03-25T09:16:07;20.71;38.89
69206;SHT30;56319;48.920;2.332;2023-03-25T09:18:33;20.72;38.87
69206;SHT30;56319;48.920;2.332;2023-03-25T09:21:01;20.72;38.85
69206;SHT30;56319;48.920;2.332;2023-03-25T09:23:27;20.75;38.82
69206;SHT30;56319;48.920;2.332;2023-03-25T09:25:53;20.73;38.72
69206;SHT30;56319;48.920;2.332;2023-03-25T09:28:18;20.73;38.81
69206;SHT30;56319;48.920;2.332;2023-03-25T09:30:44;20.73;38.76
69206;SHT30;56319;48.920;2.332;2023-03-25T09:33:10;20.75;38.77
69206;SHT30;56319;48.920;2.332;2023-03-25T09:35:38;20.75;38.73
69206;SHT30;56319;48.920;2.332;2023-03-25T09:38:03;20.76;38.80
69206;SHT30;56319;48.920;2.332;2023-03-25T09:40:30;20.76;38.70
69206;SHT30;56319;48.920;2.332;2023-03-25T09:43:05;20.76;38.72
69206;SHT30;56319;48.920;2.332;2023-03-25T09:45:39;20.77;38.70
69206;SHT30;56319;48.920;2.332;2023-03-25T09:48:23;20.76;38.62
69206;SHT30;56319;48.920;2.332;2023-03-25T09:50:49;20.82;38.62
69206;SHT30;56319;48.920;2.332;2023-03-25T09:53:26;20.77;38.61
69206;SHT30;56319;48.920;2.332;2023-03-25T09:55:53;20.77;38.62
69206;SHT30;56319;48.920;2.332;2023-03-25T09:58:33;20.79;38.58
69206;SHT30;56319;48.920;2.332;2023-03-25T10:01:19;20.79;38.60
69206;SHT30;56319;48.920;2.332;2023-03-25T10:04:10;20.77;38.57
69206;SHT30;56319;48.920;2.332;2023-03-25T10:06:55;20.77;38.61
69206;SHT30;56319;48.920;2.332;2023-03-25T10:09:37;20.79;38.62
69206;SHT30;56319;48.920;2.332;2023-03-25T10:12:28;20.79;38.62
69206;SHT30;56319;48.920;2.332;2023-03-25T10:21:16;20.82;38.60
69206;SHT30;56319;48.920;2.332;2023-03-25T10:23:55;20.86;38.56
69206;SHT30;56319;48.920;2.332;2023-03-25T10:26:29;20.85;38.54
69206;SHT30;56319;48.920;2.332;2023-03-25T10:29:02;20.85;38.52
69206;SHT30;56319;48.920;2.332;2023-03-25T10:31:34;20.87;38.50
69206;SHT30;56319;48.920;2.332;2023-03-25T10:34:06;20.90;38.50
69206;SHT30;56319;48.920;2.332;2023-03-25T10:36:40;20.90;38.46
69206;SHT30;56319;48.920;2.332;2023-03-25T10:39:16;20.92;38.44
69206;SHT30;56319;48.920;2.332;2023-03-25T10:41:51;20.96;38.37
69206;SHT30;56319;48.920;2.332;2023-03-25T10:44:20;20.94;38.41
69206;SHT30;56319;48.920;2.332;2023-03-25T10:46:53;20.96;38.37
69206;SHT30;56319;48.920;2.332;2023-03-25T10:49:26;20.96;38.33
69206;SHT30;56319;48.920;2.332;2023-03-25T10:51:52;20.96;38.29
69206;SHT30;56319;48.920;2.332;2023-03-25T10:54:20;20.97;38.27
69206;SHT30;56319;48.920;2.332;2023-03-25T10:56:50;20.96;38.25
69206;SHT30;56319;48.920;2.332;2023-03-25T10:59:37;20.97;38.21
69206;SHT30;56319;48.920;2.332;2023-03-25T11:02:14;20.99;38.17
69206;SHT30;56319;48.920;2.332;2023-03-25T11:04:42;21.00;38.16
69206;SHT30;56319;48.920;2.332;2023-03-25T11:07:31;21.02;38.12
69206;SHT30;56319;48.920;2.332;2023-03-25T11:10:25;21.03;38.14
69206;SHT30;56319;48.920;2.332;2023-03-25T11:12:52;21.06;38.10
69206;SHT30;56319;48.920;2.332;2023-03-25T11:15:23;21.07;38.07
69206;SHT30;56319;48.920;2.332;2023-03-25T11:18:10;21.10;38.10
69206;SHT30;56319;48.920;2.332;2023-03-25T11:20:45;21.07;38.09
69206;SHT30;56319;48.920;2.332;2023-03-25T11:23:24;21.10;37.98
69206;SHT30;56319;48.920;2.332;2023-03-25T11:25:52;21.08;38.04
69206;SHT30;56319;48.920;2.332;2023-03-25T11:28:30;21.08;38.02
69206;SHT30;56319;48.920;2.332;2023-03-25T11:31:20;21.10;38.00
69206;SHT30;56319;48.920;2.332;2023-03-25T11:34:05;21.11;37.93
69206;SHT30;56319;48.920;2.332;2023-03-25T11:36:34;21.10;37.95
69206;SHT30;56319;48.920;2.332;2023-03-25T11:39:15;21.11;37.93
69206;SHT30;56319;48.920;2.332;2023-03-25T11:41:42;21.13;37.86
69206;SHT30;56319;48.920;2.332;2023-03-25T11:44:21;21.15;37.85
69206;SHT30;56319;48.920;2.332;2023-03-25T11:46:49;21.17;37.88
69206;SHT30;56319;48.920;2.332;2023-03-25T11:49:19;21.19;37.87
69206;SHT30;56319;48.920;2.332;2023-03-25T11:51:49;21.24;37.87
69206;SHT30;56319;48.920;2.332;2023-03-25T11:54:16;21.27;37.84
69206;SHT30;56319;48.920;2.332;2023-03-25T11:56:43;21.26;37.78
69206;SHT30;56319;48.920;2.332;2023-03-25T12:02:16;21.34;37.75
69206;SHT30;56319;48.920;2.332;2023-03-25T12:05:09;21.37;37.68
69206;SHT30;56319;48.920;2.332;2023-03-25T12:07:43;21.38;37.69
69206;SHT30;56319;48.920;2.332;2023-03-25T12:10:16;21.41;37.60
69206;SHT30;56319;48.920;2.332;2023-03-25T12:12:59;21.45;37.57
69206;SHT30;56319;48.920;2.332;2023-03-25T12:24:52;21.63;37.33
69206;SHT30;56319;48.920;2.332;2023-03-25T12:27:47;21.63;37.30
69206;SHT30;56319;48.920;2.332;2023-03-25T12:30:40;21.63;37.31
69206;SHT30;56319;48.920;2.332;2023-03-25T12:42:10;21.75;37.19
69206;SHT30;56319;48.920;2.332;2023-03-25T12:45:05;21.79;37.16
69206;SHT30;56319;48.920;2.332;2023-03-25T12:47:38;21.83;37.08
69206;SHT30;56319;48.920;2.332;2023-03-25T12:53:38;21.90;37.04
69206;SHT30;56319;48.920;2.332;2023-03-25T12:59:35;21.90;36.97
69206;SHT30;56319;48.920;2.332;2023-03-25T13:02:19;21.90;36.90
69206;SHT30;56319;48.920;2.332;2023-03-25T13:07:57;21.92;36.92
69206;SHT30;56319;48.920;2.332;2023-03-25T13:10:30;21.93;36.88
69206;SHT30;56319;48.920;2.332;2023-03-25T13:13:00;21.92;36.92
69206;SHT30;56319;48.920;2.332;2023-03-25T13:15:31;21.96;36.81
69206;SHT30;56319;48.920;2.332;2023-03-25T13:18:02;21.96;36.79
69206;SHT30;56319;48.920;2.332;2023-03-25T13:20:36;21.96;36.80
69206;SHT30;56319;48.920;2.332;2023-03-25T13:23:05;21.97;36.76
69206;SHT30;56319;48.920;2.332;2023-03-25T13:25:43;21.93;36.75
69206;SHT30;56319;48.920;2.332;2023-03-25T13:28:16;21.96;36.74
69206;SHT30;56319;48.920;2.332;2023-03-25T13:30:45;21.96;36.75
69206;SHT30;56319;48.920;2.332;2023-03-25T13:33:15;21.99;36.67
69206;SHT30;56319;48.920;2.332;2023-03-25T13:38:38;22.04;36.58
69206;SHT30;56319;48.920;2.332;2023-03-25T13:41:11;22.07;36.58
69206;SHT30;56319;48.920;2.332;2023-03-25T13:46:37;22.17;36.43
69206;SHT30;56319;48.920;2.332;2023-03-25T13:49:15;22.21;36.38
69206;SHT30;56319;48.920;2.332;2023-03-25T13:51:43;22.25;36.35
69206;SHT30;56319;48.920;2.332;2023-03-25T13:54:17;22.28;36.28
69206;SHT30;56319;48.920;2.332;2023-03-25T14:06:06;22.37;36.08
69206;SHT30;56319;48.920;2.332;2023-03-25T14:09:00;22.35;36.10
69206;SHT30;56319;48.920;2.332;2023-03-25T14:14:22;22.35;36.04
69206;SHT30;56319;48.920;2.332;2023-03-25T14:16:53;22.33;36.00
69206;SHT30;56319;48.920;2.332;2023-03-25T14:19:33;22.34;35.97
69206;SHT30;56319;48.920;2.332;2023-03-25T14:22:09;22.33;35.98
69206;SHT30;56319;48.920;2.332;2023-03-25T14:24:37;22.30;35.92
69206;SHT30;56319;48.920;2.332;2023-03-25T14:27:05;22.28;35.93
69206;SHT30;56319;48.920;2.332;2023-03-25T14:29:51;22.30;35.87
69206;SHT30;56319;48.920;2.332;2023-03-25T14:32:30;22.31;35.85
69206;SHT30;56319;48.920;2.332;2023-03-25T14:41:07;22.47;35.55
69206;SHT30;56319;48.920;2.332;2023-03-25T14:43:38;22.49;35.57
69206;SHT30;56319;48.920;2.332;2023-03-25T14:46:19;22.51;35.47
69206;SHT30;56319;48.920;2.332;2023-03-25T14:48:51;22.49;35.54
69206;SHT30;56319;48.920;2.332;2023-03-25T14:54:28;22.48;35.45
69206;SHT30;56319;48.920;2.332;2023-03-25T14:57:00;22.48;35.41
69206;SHT30;56319;48.920;2.332;2023-03-25T14:59:35;22.47;35.44
69206;SHT30;56319;48.920;2.332;2023-03-25T15:02:08;22.51;35.39
69206;SHT30;56319;48.920;2.332;2023-03-25T15:04:36;22.48;35.42
69206;SHT30;56319;48.920;2.332;2023-03-25T15:07:08;22.44;35.34
69206;SHT30;56319;48.920;2.332;2023-03-25T15:09:45;22.44;35.41
69206;SHT30;56319;48.920;2.332;2023-03-25T15:12:17;22.40;35.39
69206;SHT30;56319;48.920;2.332;2023-03-25T15:14:48;22.38;35.32
69206;SHT30;56319;48.920;2.332;2023-03-25T15:17:38;22.34;35.35
69206;SHT30;56319;48.920;2.332;2023-03-25T15:20:28;22.37;35.30
69206;SHT30;56319;48.920;2.332;2023-03-25T15:25:59;22.35;35.29
69206;SHT30;56319;48.920;2.332;2023-03-25T15:34:53;22.34;35.25
69206;SHT30;56319;48.920;2.332;2023-03-25T15:37:50;22.37;35.24
69206;SHT30;56319;48.920;2.332;2023-03-25T15:40:52;22.37;35.24
69206;SHT30;56319;48.920;2.332;2023-03-25T15:46:56;22.35;35.12
69206;SHT30;56319;48.920;2.332;2023-03-25T15:49:49;22.37;35.17
69206;SHT30;56319;48.920;2.332;2023-03-25T15:55:16;22.35;35.12
69206;SHT30;56319;48.920;2.332;2023-03-25T15:57:46;22.35;35.06
69206;SHT30;56319;48.920;2.332;2023-03-25T16:00:34;22.35;34.96
69206;SHT30;56319;48.920;2.332;2023-03-25T16:03:07;22.35;34.93
69206;SHT30;56319;48.920;2.332;2023-03-25T16:05:39;22.37;34.98
69206;SHT30;56319;48.920;2.332;2023-03-25T16:08:14;22.40;34.93
69206;SHT30;56319;48.920;2.332;2023-03-25T16:10:41;22.37;34.89
69206;SHT30;56319;48.920;2.332;2023-03-25T16:13:12;22.41;34.82
69206;SHT30;56319;48.920;2.332;2023-03-25T16:15:38;22.40;34.86
69206;SHT30;56319;48.920;2.332;2023-03-25T16:18:06;22.40;34.85
69206;SHT30;56319;48.920;2.332;2023-03-25T16:20:34;22.37;34.79
69206;SHT30;56319;48.920;2.332;2023-03-25T16:23:03;22.43;34.82
69206;SHT30;56319;48.920;2.332;2023-03-25T16:25:32;22.40;34.79
69206;SHT30;56319;48.920;2.332;2023-03-25T16:28:04;22.41;34.77
69206;SHT30;56319;48.920;2.332;2023-03-25T16:30:35;22.45;34.71
69206;SHT30;56319;48.920;2.332;2023-03-25T16:33:26;22.48;34.66
69206;SHT30;56319;48.920;2.332;2023-03-25T16:36:14;22.48;34.62
69206;SHT30;56319;48.920;2.332;2023-03-25T16:38:42;22.48;34.58
69206;SHT30;56319;48.920;2.332;2023-03-25T16:41:12;22.52;34.47
69206;SHT30;56319;48.920;2.332;2023-03-25T16:43:38;22.54;34.51
69206;SHT30;56319;48.920;2.332;2023-03-25T16:46:06;22.59;34.42
69206;SHT30;56319;48.920;2.332;2023-03-25T16:48:35;22.59;34.44
69206;SHT30;56319;48.920;2.332;2023-03-25T16:51:10;22.61;34.41
69206;SHT30;56319;48.920;2.332;2023-03-25T16:53:37;22.63;34.33
69206;SHT30;56319;48.920;2.332;2023-03-25T16:56:29;22.66;34.34
69206;SHT30;56319;48.920;2.332;2023-03-25T17:01:51;22.65;34.28
69206;SHT30;56319;48.920;2.332;2023-03-25T17:04:20;22.65;34.28
69206;SHT30;56319;48.920;2.332;2023-03-25T17:06:50;22.63;34.29
69206;SHT30;56319;48.920;2.332;2023-03-25T17:09:19;22.59;34.22
69206;SHT30;56319;48.920;2.332;2023-03-25T17:11:46;22.58;34.20
69206;SHT30;56319;48.920;2.332;2023-03-25T17:14:19;22.56;34.20
69206;SHT30;56319;48.920;2.332;2023-03-25T17:16:46;22.55;34.20
69206;SHT30;56319;48.920;2.332;2023-03-25T17:19:14;22.54;34.24
69206;SHT30;56319;48.920;2.332;2023-03-25T17:22:06;22.54;34.17
69206;SHT30;56319;48.920;2.332;2023-03-25T17:25:11;22.48;34.17
69206;SHT30;56319;48.920;2.332;2023-03-25T17:27:46;22.45;34.19
69206;SHT30;56319;48.920;2.332;2023-03-25T17:30:18;22.44;34.19
69206;SHT30;56319;48.920;2.332;2023-03-25T17:32:45;22.41;34.18
69206;SHT30;56319;48.920;2.332;2023-03-25T17:35:31;22.37;34.25
69206;SHT30;56319;48.920;2.332;2023-03-25T17:37:56;22.38;34.26